Time;durP1;ratioP1;P1;durP2;ratioP2;P2;SDS_P1;SDS_P2;PMS_P1;PMS_P2;Temp;Humidity;BMP_temperature;BMP_pressure;BME280_temperature;BME280_humidity;BME280_pressure;Samples;Min_cycle;Max_cycle;Signal;HPM_P1;HPM_P2
2022/10/29 00:01:19;;;;;;;;;;;12.00;99.90;;;;;;4937630;29;19923;-86
2022/10/29 00:03:57;;;;;;;;;;;11.50;99.90;;;;;;4937907;29;19927;-86
2022/10/29 00:06:36;;;;;;;;;;;11.80;99.90;;;;;;4938181;29;19922;-86
2022/10/29 00:09:08;;;;;;;;;;;11.40;99.90;;;;;;4938185;29;19965;-85
2022/10/29 00:11:59;;;;;;;;;;;11.50;99.90;;;;;;4955027;29;19922;-85
2022/10/29 00:15:09;;;;;;;;;;;11.50;99.90;;;;;;4937819;29;20036;-86
2022/10/29 00:17:59;;;;;;;;;;;11.50;99.90;;;;;;4938020;29;19929;-85
2022/10/29 00:21:05;;;;;;;;;;;11.60;99.90;;;;;;4954850;29;19922;-86
2022/10/29 00:24:08;;;;;;;;;;;11.80;99.90;;;;;;4954887;29;20311;-86
2022/10/29 00:26:59;;;;;;;;;;;11.60;99.90;;;;;;4954566;29;20004;-86
2022/10/29 00:30:06;;;;;;;;;;;11.50;99.90;;;;;;4937471;29;19929;-86
2022/10/29 00:32:31;;;;;;;;;;;12.40;99.90;;;;;;4936924;29;20275;-86
2022/10/29 00:38:32;;;;;;;;;;;11.50;99.90;;;;;;4954727;29;19957;-86
2022/10/29 00:40:58;;;;;;;;;;;11.00;99.90;;;;;;4954469;29;19922;-85
2022/10/29 00:43:43;;;;;;;;;;;11.40;99.90;;;;;;4937752;29;19922;-85
2022/10/29 00:46:29;;;;;;;;;;;12.40;99.90;;;;;;4954071;29;19932;-85
2022/10/29 00:49:25;;;;;;;;;;;12.70;99.90;;;;;;4937033;29;19923;-86
2022/10/29 00:52:06;;;;;;;;;;;11.50;99.90;;;;;;4953799;28;19947;-86
2022/10/29 00:54:48;;;;;;;;;;;11.50;99.90;;;;;;4954193;29;19926;-85
2022/10/29 00:57:28;;;;;;;;;;;11.40;99.90;;;;;;4937012;29;20581;-85
2022/10/29 01:00:02;;;;;;;;;;;11.40;99.90;;;;;;4954326;29;19990;-85
2022/10/29 01:02:47;;;;;;;;;;;11.30;99.90;;;;;;4936868;29;20278;-85
2022/10/29 01:05:15;;;;;;;;;;;11.30;99.90;;;;;;4954960;29;20330;-85
2022/10/29 01:08:02;;;;;;;;;;;11.30;99.90;;;;;;4935783;29;20377;-86
2022/10/29 01:10:50;;;;;;;;;;;11.20;99.90;;;;;;4937576;29;19923;-86
2022/10/29 01:13:22;;;;;;;;;;;11.10;99.90;;;;;;4938890;29;20394;-85
2022/10/29 01:16:06;;;;;;;;;;;10.20;99.90;;;;;;4940723;29;19929;-85
2022/10/29 01:18:32;;;;;;;;;;;11.00;99.90;;;;;;4941359;29;19927;-85
2022/10/29 01:21:16;;;;;;;;;;;10.10;99.90;;;;;;4941171;29;19926;-85
2022/10/29 01:23:57;;;;;;;;;;;11.70;99.90;;;;;;4958767;29;19929;-85
2022/10/29 01:26:37;;;;;;;;;;;11.00;99.90;;;;;;4958525;29;19922;-85
2022/10/29 01:29:24;;;;;;;;;;;10.90;99.90;;;;;;4960597;29;19918;-85
2022/10/29 01:31:59;;;;;;;;;;;10.80;99.90;;;;;;4942905;29;20375;-86
2022/10/29 01:34:43;;;;;;;;;;;10.80;99.90;;;;;;4940859;29;20016;-85
2022/10/29 01:37:27;;;;;;;;;;;10.80;99.90;;;;;;4957623;29;19929;-85
2022/10/29 01:40:04;;;;;;;;;;;10.80;99.90;;;;;;4940816;29;19922;-85
2022/10/29 01:42:48;;;;;;;;;;;10.70;99.90;;;;;;4939753;29;19965;-85
2022/10/29 01:48:04;;;;;;;;;;;10.60;99.90;;;;;;4965221;23;20374;-85
2022/10/29 01:50:31;;;;;;;;;;;10.50;99.90;;;;;;4940239;29;20396;-85
2022/10/29 01:56:34;;;;;;;;;;;10.60;99.90;;;;;;4956888;29;19925;-85
2022/10/29 01:59:12;;;;;;;;;;;10.50;99.90;;;;;;4958082;29;19961;-86
2022/10/29 02:01:56;;;;;;;;;;;10.70;99.90;;;;;;4957660;28;19969;-86
2022/10/29 02:04:41;;;;;;;;;;;10.40;99.90;;;;;;4938660;29;20367;-86
2022/10/29 02:07:25;;;;;;;;;;;10.30;99.90;;;;;;4940070;29;20389;-86
2022/10/29 02:09:56;;;;;;;;;;;10.30;99.90;;;;;;4940594;29;19923;-86
2022/10/29 02:12:44;;;;;;;;;;;10.30;99.90;;;;;;4956442;29;20140;-86
2022/10/29 02:15:32;;;;;;;;;;;10.20;99.90;;;;;;4938596;29;19929;-86
2022/10/29 02:18:13;;;;;;;;;;;10.20;99.90;;;;;;4956706;29;19948;-86
2022/10/29 02:26:56;;;;;;;;;;;10.10;99.90;;;;;;5756256;23;19973;-86
2022/10/29 02:29:48;;;;;;;;;;;10.10;99.90;;;;;;5182943;23;20271;-87
2022/10/29 02:32:17;;;;;;;;;;;10.00;99.90;;;;;;4900838;29;20320;-86
2022/10/29 02:34:58;;;;;;;;;;;9.90;99.90;;;;;;4902874;29;19927;-86
2022/10/29 02:37:36;;;;;;;;;;;9.90;99.90;;;;;;4886458;29;20010;-86
2022/10/29 02:40:05;;;;;;;;;;;9.90;99.90;;;;;;4928758;23;20034;-86
2022/10/29 02:42:30;;;;;;;;;;;9.90;99.90;;;;;;4939523;29;19929;-86
2022/10/29 02:44:57;;;;;;;;;;;9.90;99.90;;;;;;4957147;29;19923;-86
2022/10/29 02:47:23;;;;;;;;;;;9.80;99.90;;;;;;4955682;29;19922;-86
2022/10/29 02:49:48;;;;;;;;;;;9.80;99.90;;;;;;4956637;29;19923;-86
2022/10/29 02:52:14;;;;;;;;;;;10.20;99.90;;;;;;4956793;29;19922;-86
2022/10/29 02:54:51;;;;;;;;;;;9.70;99.90;;;;;;4938826;29;19923;-86
2022/10/29 02:57:23;;;;;;;;;;;9.70;99.90;;;;;;4956756;29;20124;-86
2022/10/29 02:59:57;;;;;;;;;;;9.50;99.90;;;;;;4956499;29;19922;-86
2022/10/29 03:02:29;;;;;;;;;;;9.60;99.90;;;;;;4956731;29;19927;-86
2022/10/29 03:05:04;;;;;;;;;;;9.10;99.90;;;;;;4956930;29;19930;-86
2022/10/29 03:07:33;;;;;;;;;;;9.60;99.90;;;;;;4945162;23;20013;-86
2022/10/29 03:09:58;;;;;;;;;;;9.60;99.90;;;;;;4939319;29;20433;-86
2022/10/29 03:12:24;;;;;;;;;;;9.50;99.90;;;;;;4956290;29;19971;-86
2022/10/29 03:14:51;;;;;;;;;;;9.50;99.90;;;;;;4955344;29;20279;-86
2022/10/29 03:17:17;;;;;;;;;;;9.50;99.90;;;;;;4938894;29;19929;-86
2022/10/29 03:19:43;;;;;;;;;;;9.50;99.90;;;;;;4956378;29;19922;-86
2022/10/29 03:22:23;;;;;;;;;;;9.50;99.90;;;;;;4938072;29;19922;-86
2022/10/29 03:25:01;;;;;;;;;;;9.50;99.90;;;;;;4938823;29;19922;-86
2022/10/29 03:27:27;;;;;;;;;;;9.50;99.90;;;;;;4956168;29;19926;-86
2022/10/29 03:29:58;;;;;;;;;;;9.30;99.90;;;;;;4938212;29;19929;-86
2022/10/29 03:32:24;;;;;;;;;;;9.50;99.90;;;;;;4955750;29;19927;-86
2022/10/29 03:34:49;;;;;;;;;;;9.50;99.90;;;;;;4955422;28;19971;-86
2022/10/29 03:37:15;;;;;;;;;;;9.50;99.90;;;;;;4938158;29;20346;-86
2022/10/29 03:39:40;;;;;;;;;;;9.60;99.90;;;;;;4955652;29;20032;-86
2022/10/29 03:42:06;;;;;;;;;;;9.60;99.90;;;;;;4938317;29;19929;-84
2022/10/29 03:44:31;;;;;;;;;;;9.50;99.90;;;;;;4956013;29;19973;-84
2022/10/29 03:46:59;;;;;;;;;;;9.50;99.90;;;;;;4936752;23;19930;-84
2022/10/29 03:49:26;;;;;;;;;;;10.20;99.90;;;;;;4918279;29;19930;-84
2022/10/29 03:52:15;;;;;;;;;;;9.50;99.90;;;;;;4936961;29;19926;-84
2022/10/29 03:54:41;;;;;;;;;;;9.20;99.90;;;;;;4936749;29;19950;-84
2022/10/29 03:57:10;;;;;;;;;;;9.40;99.90;;;;;;4918313;29;19927;-84
2022/10/29 03:59:36;;;;;;;;;;;9.50;99.90;;;;;;4919325;29;20009;-84
2022/10/29 04:02:11;;;;;;;;;;;10.70;99.90;;;;;;4927123;29;20014;-84
2022/10/29 04:04:52;;;;;;;;;;;9.60;99.90;;;;;;4925851;29;19922;-84
2022/10/29 04:07:18;;;;;;;;;;;9.50;99.90;;;;;;4954614;29;19988;-84
2022/10/29 04:09:49;;;;;;;;;;;9.40;99.90;;;;;;4955262;29;20371;-84
2022/10/29 04:12:46;;;;;;;;;;;9.60;99.90;;;;;;4937414;29;19922;-84
2022/10/29 04:15:11;;;;;;;;;;;9.70;99.90;;;;;;4937647;29;19930;-84
2022/10/29 04:17:48;;;;;;;;;;;9.50;99.90;;;;;;4937073;29;19922;-84
2022/10/29 04:20:42;;;;;;;;;;;9.70;99.90;;;;;;4937822;29;20333;-84
2022/10/29 04:26:32;;;;;;;;;;;9.70;99.90;;;;;;4954594;29;19917;-84
2022/10/29 04:29:07;;;;;;;;;;;9.70;99.90;;;;;;4937945;29;20009;-84
2022/10/29 04:31:45;;;;;;;;;;;9.20;99.90;;;;;;4937514;29;20290;-84
2022/10/29 04:34:16;;;;;;;;;;;9.70;99.90;;;;;;4937693;29;19923;-84
2022/10/29 04:36:52;;;;;;;;;;;9.80;99.90;;;;;;4955183;29;19922;-85
2022/10/29 04:39:30;;;;;;;;;;;9.80;99.90;;;;;;4936682;29;19923;-84
2022/10/29 04:41:55;;;;;;;;;;;9.80;99.90;;;;;;4938073;29;19922;-84
2022/10/29 04:44:21;;;;;;;;;;;9.30;99.90;;;;;;4954995;29;20370;-84
2022/10/29 04:46:56;;;;;;;;;;;9.90;99.90;;;;;;4937030;29;19922;-85
2022/10/29 04:50:02;;;;;;;;;;;9.90;99.90;;;;;;4938089;29;19922;-86
2022/10/29 04:53:10;;;;;;;;;;;9.60;99.90;;;;;;4954889;29;19926;-85
2022/10/29 04:56:10;;;;;;;;;;;10.00;99.90;;;;;;4937430;29;20010;-88
2022/10/29 04:59:01;;;;;;;;;;;10.10;99.90;;;;;;4939728;29;19933;-86
2022/10/29 05:02:09;;;;;;;;;;;10.20;99.90;;;;;;4957212;29;19926;-85
2022/10/29 05:04:59;;;;;;;;;;;10.30;99.90;;;;;;4939071;29;19926;-86
2022/10/29 05:08:09;;;;;;;;;;;10.30;99.90;;;;;;4939403;29;19985;-86
2022/10/29 05:10:41;;;;;;;;;;;10.20;99.90;;;;;;4938182;29;19933;-88
2022/10/29 05:13:11;;;;;;;;;;;10.40;99.90;;;;;;4938798;29;19923;-86
2022/10/29 05:15:51;;;;;;;;;;;10.50;99.90;;;;;;4956181;29;20301;-86
2022/10/29 05:18:32;;;;;;;;;;;10.50;99.90;;;;;;4938941;29;20001;-88
2022/10/29 05:21:13;;;;;;;;;;;10.50;99.90;;;;;;4957536;29;19930;-87
2022/10/29 05:23:48;;;;;;;;;;;10.60;99.90;;;;;;4947288;23;19929;-87
2022/10/29 05:26:14;;;;;;;;;;;11.20;99.90;;;;;;4947226;23;20402;-86
2022/10/29 05:28:39;;;;;;;;;;;10.60;99.90;;;;;;4957767;29;19929;-87
2022/10/29 05:31:17;;;;;;;;;;;10.60;99.90;;;;;;4940038;29;20377;-87
2022/10/29 05:34:02;;;;;;;;;;;10.10;99.90;;;;;;4956802;29;20374;-85
2022/10/29 05:36:40;;;;;;;;;;;10.70;99.90;;;;;;4937965;29;19996;-86
2022/10/29 05:39:06;;;;;;;;;;;10.70;99.90;;;;;;4973312;23;19929;-86
2022/10/29 05:41:31;;;;;;;;;;;10.70;99.90;;;;;;4939588;29;19958;-86
2022/10/29 05:51:43;;;;;;;;;;;10.70;99.90;;;;;;5879199;23;19926;-86
2022/10/29 05:54:23;;;;;;;;;;;11.60;99.90;;;;;;4959376;29;19928;-87
2022/10/29 05:57:01;;;;;;;;;;;10.90;99.90;;;;;;4959422;29;19923;-86
2022/10/29 05:59:45;;;;;;;;;;;10.20;99.90;;;;;;4941955;29;19933;-86
2022/10/29 06:02:23;;;;;;;;;;;10.80;99.90;;;;;;4945979;29;19933;-88
2022/10/29 06:04:48;;;;;;;;;;;10.80;99.90;;;;;;4943274;29;19926;-86
2022/10/29 06:07:20;;;;;;;;;;;10.10;99.90;;;;;;4942304;29;20020;-87
2022/10/29 06:09:49;;;;;;;;;;;10.80;99.90;;;;;;4943577;29;20021;-90
2022/10/29 06:12:23;;;;;;;;;;;10.80;99.90;;;;;;4960376;29;20390;-90
2022/10/29 06:15:07;;;;;;;;;;;10.90;99.90;;;;;;4960685;29;19969;-89
2022/10/29 06:17:42;;;;;;;;;;;10.80;99.90;;;;;;4943169;29;20367;-86
2022/10/29 06:20:20;;;;;;;;;;;10.90;99.90;;;;;;4960418;29;20375;-86
2022/10/29 06:23:01;;;;;;;;;;;10.80;99.90;;;;;;4943160;29;20375;-87
2022/10/29 06:25:33;;;;;;;;;;;11.10;99.90;;;;;;4942686;29;19926;-86
2022/10/29 06:28:06;;;;;;;;;;;10.90;99.90;;;;;;4960027;29;20326;-86
2022/10/29 06:31:15;;;;;;;;;;;10.90;99.90;;;;;;4948707;23;19926;-86
2022/10/29 06:33:44;;;;;;;;;;;10.70;99.90;;;;;;4960962;29;19922;-87
2022/10/29 06:36:20;;;;;;;;;;;10.90;99.90;;;;;;4960070;29;19923;-87
2022/10/29 06:39:01;;;;;;;;;;;11.00;99.90;;;;;;4941876;29;20287;-87
2022/10/29 06:41:27;;;;;;;;;;;10.50;99.90;;;;;;4959412;29;19949;-86
2022/10/29 06:44:08;;;;;;;;;;;11.30;99.90;;;;;;4943502;29;20375;-86
2022/10/29 06:46:52;;;;;;;;;;;11.00;99.90;;;;;;4941983;29;19926;-86
2022/10/29 06:49:33;;;;;;;;;;;11.00;99.90;;;;;;4942931;29;19922;-86
2022/10/29 06:52:16;;;;;;;;;;;11.10;99.90;;;;;;4958801;29;19926;-87
2022/10/29 06:54:53;;;;;;;;;;;11.00;99.90;;;;;;4958994;29;20337;-87
2022/10/29 06:57:37;;;;;;;;;;;11.10;99.90;;;;;;4942204;29;20475;-87
2022/10/29 07:00:06;;;;;;;;;;;11.10;99.90;;;;;;4946941;23;19922;-87
2022/10/29 07:02:31;;;;;;;;;;;11.20;99.90;;;;;;4955481;29;19929;-87
2022/10/29 07:05:15;;;;;;;;;;;11.20;99.90;;;;;;4957324;29;19970;-86
2022/10/29 07:07:57;;;;;;;;;;;11.20;99.90;;;;;;4957818;29;19930;-86
2022/10/29 07:10:34;;;;;;;;;;;10.90;99.90;;;;;;4940845;29;20268;-86
2022/10/29 07:13:12;;;;;;;;;;;10.30;99.90;;;;;;4989008;23;20208;-86
2022/10/29 07:16:02;;;;;;;;;;;11.10;99.90;;;;;;4973197;23;19927;-86
2022/10/29 07:19:13;;;;;;;;;;;11.00;99.90;;;;;;4939997;29;20274;-86
2022/10/29 07:22:03;;;;;;;;;;;11.80;99.90;;;;;;4953525;29;19929;-87
2022/10/29 07:24:30;;;;;;;;;;;11.50;99.90;;;;;;4956212;29;20017;-87
2022/10/29 07:27:00;;;;;;;;;;;11.60;99.90;;;;;;4956322;29;20034;-86
2022/10/29 07:29:31;;;;;;;;;;;11.50;99.90;;;;;;4956833;29;19973;-86
2022/10/29 07:32:03;;;;;;;;;;;11.80;99.90;;;;;;4956509;29;19926;-87
2022/10/29 07:34:38;;;;;;;;;;;11.80;99.90;;;;;;4938240;29;20407;-87
2022/10/29 07:37:13;;;;;;;;;;;11.80;99.90;;;;;;4938774;29;20310;-86
2022/10/29 07:39:47;;;;;;;;;;;11.90;99.90;;;;;;4955914;29;19922;-86
2022/10/29 07:42:19;;;;;;;;;;;11.90;99.90;;;;;;4937833;29;20283;-86
2022/10/29 07:44:44;;;;;;;;;;;11.70;99.90;;;;;;4936139;29;19923;-86
2022/10/29 07:47:10;;;;;;;;;;;12.70;99.90;;;;;;4938620;29;19957;-87
2022/10/29 07:49:54;;;;;;;;;;;12.00;99.90;;;;;;4936960;29;20381;-86
2022/10/29 07:52:29;;;;;;;;;;;12.00;99.90;;;;;;4925905;29;19923;-86
2022/10/29 07:54:54;;;;;;;;;;;12.00;99.90;;;;;;4926975;29;19927;-86
2022/10/29 07:57:32;;;;;;;;;;;13.10;99.90;;;;;;4946308;29;20291;-86
2022/10/29 08:00:15;;;;;;;;;;;12.10;99.90;;;;;;4954860;29;19926;-86
2022/10/29 08:02:50;;;;;;;;;;;12.20;99.90;;;;;;4924222;29;19997;-86
2022/10/29 08:05:53;;;;;;;;;;;12.20;99.90;;;;;;4918810;29;19974;-86
2022/10/29 08:08:19;;;;;;;;;;;12.30;99.90;;;;;;4936491;29;19922;-86
2022/10/29 08:11:16;;;;;;;;;;;12.50;99.90;;;;;;4936115;29;19923;-89
2022/10/29 08:19:45;;;;;;;;;;;12.50;99.90;;;;;;4936052;29;19942;-88
2022/10/29 08:30:59;;;;;;;;;;;13.30;99.90;;;;;;5419972;23;19922;-88
2022/10/29 08:33:56;;;;;;;;;;;13.30;99.90;;;;;;4945500;28;19922;-89
2022/10/29 08:39:55;;;;;;;;;;;12.90;99.90;;;;;;4965424;23;20462;-88
2022/10/29 08:42:52;;;;;;;;;;;13.60;99.90;;;;;;4954681;29;19922;-87
2022/10/29 08:52:00;;;;;;;;;;;13.90;99.90;;;;;;4919912;29;20386;-87
2022/10/29 08:54:34;;;;;;;;;;;14.10;99.90;;;;;;4954438;29;20345;-86
2022/10/29 08:57:06;;;;;;;;;;;14.10;99.90;;;;;;4954947;29;20367;-87
2022/10/29 08:59:52;;;;;;;;;;;14.30;99.90;;;;;;4943421;23;19930;-86
2022/10/29 09:02:21;;;;;;;;;;;14.60;99.90;;;;;;4937858;29;19930;-88
2022/10/29 09:05:00;;;;;;;;;;;13.90;99.90;;;;;;4954565;29;19993;-87
2022/10/29 09:14:33;;;;;;;;;;;14.90;99.90;;;;;;4937015;29;19923;-87
2022/10/29 09:17:12;;;;;;;;;;;14.90;99.90;;;;;;4949533;29;20017;-86
2022/10/29 09:20:04;;;;;;;;;;;15.10;99.90;;;;;;4921470;29;19930;-87
2022/10/29 09:22:32;;;;;;;;;;;15.20;99.90;;;;;;4924143;29;19977;-87
2022/10/29 09:31:03;;;;;;;;;;;15.50;99.90;;;;;;4918160;29;19923;-88
2022/10/29 09:39:13;;;;;;;;;;;15.70;99.90;;;;;;5128018;23;19922;-88
2022/10/29 09:42:12;;;;;;;;;;;15.40;99.90;;;;;;4957385;29;20026;-88
2022/10/29 09:45:12;;;;;;;;;;;16.00;99.90;;;;;;4943097;29;19917;-88
2022/10/29 09:48:11;;;;;;;;;;;15.80;99.90;;;;;;4940148;29;19922;-88
2022/10/29 09:51:08;;;;;;;;;;;16.10;99.90;;;;;;4940693;29;20426;-88
2022/10/29 09:53:39;;;;;;;;;;;16.00;99.90;;;;;;4941000;29;19926;-88
2022/10/29 09:56:07;;;;;;;;;;;16.40;99.90;;;;;;4935575;29;19923;-88
2022/10/29 09:58:44;;;;;;;;;;;16.20;99.90;;;;;;4936562;29;19926;-88
2022/10/29 10:04:38;;;;;;;;;;;16.90;99.90;;;;;;4972625;23;20000;-88
2022/10/29 10:07:18;;;;;;;;;;;16.80;99.90;;;;;;4917050;29;19923;-88
2022/10/29 10:13:56;;;;;;;;;;;16.90;99.90;;;;;;4863491;29;19924;-89
2022/10/29 10:16:33;;;;;;;;;;;17.10;99.90;;;;;;5149844;23;19922;-89
2022/10/29 10:24:56;;;;;;;;;;;17.30;99.90;;;;;;5054809;23;19998;-90
2022/10/29 10:39:41;;;;;;;;;;;17.80;99.90;;;;;;4920310;29;19923;-88
2022/10/29 10:48:57;;;;;;;;;;;18.10;99.90;;;;;;4918134;29;19953;-88
2022/10/29 10:51:41;;;;;;;;;;;17.90;99.90;;;;;;4917678;29;19923;-87
2022/10/29 11:03:07;;;;;;;;;;;18.60;99.90;;;;;;5357479;23;20309;-88
2022/10/29 11:06:13;;;;;;;;;;;18.80;99.90;;;;;;4954046;28;20263;-88
2022/10/29 11:12:15;;;;;;;;;;;18.60;99.90;;;;;;4935037;29;19918;-88
2022/10/29 11:15:05;;;;;;;;;;;18.60;99.90;;;;;;4919891;29;20366;-88
2022/10/29 11:17:52;;;;;;;;;;;19.00;99.90;;;;;;4936324;29;19937;-87
2022/10/29 11:29:27;;;;;;;;;;;18.90;99.90;;;;;;4935138;29;19923;-88
2022/10/29 11:31:57;;;;;;;;;;;18.80;99.90;;;;;;4936573;29;19927;-88
2022/10/29 11:37:44;;;;;;;;;;;18.80;99.90;;;;;;4917645;29;19933;-88
2022/10/29 11:53:45;;;;;;;;;;;18.30;99.90;;;;;;4952528;28;19929;-88
2022/10/29 11:56:39;;;;;;;;;;;18.70;99.90;;;;;;4915797;29;19929;-88
2022/10/29 11:59:23;;;;;;;;;;;18.80;99.90;;;;;;4920357;29;19927;-89
2022/10/29 12:02:01;;;;;;;;;;;18.90;99.90;;;;;;4915173;29;19923;-89
2022/10/29 12:05:10;;;;;;;;;;;18.90;99.90;;;;;;5224017;23;19945;-89
2022/10/29 12:07:53;;;;;;;;;;;19.10;99.90;;;;;;4936721;29;19923;-89
2022/10/29 12:10:48;;;;;;;;;;;19.40;99.90;;;;;;4918587;29;19927;-89
2022/10/29 12:16:52;;;;;;;;;;;19.40;99.90;;;;;;4932099;28;20429;-88
2022/10/29 12:19:52;;;;;;;;;;;19.30;99.90;;;;;;4924507;29;19922;-89
2022/10/29 12:22:24;;;;;;;;;;;19.40;99.90;;;;;;4915189;29;20434;-88
2022/10/29 12:25:08;;;;;;;;;;;19.40;99.90;;;;;;4926138;28;19922;-89
2022/10/29 12:27:59;;;;;;;;;;;19.70;99.90;;;;;;5187530;23;19923;-90
2022/10/29 12:31:05;;;;;;;;;;;19.60;99.90;;;;;;4915823;29;19970;-89
2022/10/29 12:34:00;;;;;;;;;;;19.40;99.90;;;;;;4910868;23;19937;-89
2022/10/29 12:36:50;;;;;;;;;;;19.30;99.90;;;;;;4936474;29;19981;-89
2022/10/29 12:39:31;;;;;;;;;;;19.60;99.90;;;;;;4938007;29;19933;-90
2022/10/29 12:41:59;;;;;;;;;;;19.60;99.90;;;;;;4938032;29;19923;-89
2022/10/29 12:44:39;;;;;;;;;;;19.60;99.90;;;;;;4936460;29;19918;-90
2022/10/29 13:12:57;;;;;;;;;;;19.80;99.90;;;;;;5898642;23;19924;-90
2022/10/29 13:38:24;;;;;;;;;;;20.50;99.90;;;;;;5246960;23;19949;-90
2022/10/29 13:41:22;;;;;;;;;;;20.30;99.90;;;;;;4916342;23;20284;-90
2022/10/29 13:47:07;;;;;;;;;;;20.00;99.90;;;;;;5097668;23;19923;-89
2022/10/29 13:49:54;;;;;;;;;;;20.00;99.90;;;;;;4940617;29;19965;-91
2022/10/29 13:55:11;;;;;;;;;;;19.80;99.90;;;;;;4967633;23;19973;-90
2022/10/29 13:58:07;;;;;;;;;;;19.80;99.90;;;;;;4940607;29;20020;-87
2022/10/29 14:31:20;;;;;;;;;;;20.40;99.90;;;;;;5032724;23;19923;-89
2022/10/29 14:36:46;;;;;;;;;;;20.50;99.90;;;;;;5455595;23;20299;-89
2022/10/29 14:49:39;;;;;;;;;;;;;;;;;;;;;
2022/10/29 15:10:37;;;;;;;;;;;;;;;;;;;;;
2022/10/29 15:13:35;;;;;;;;;;;19.40;99.90;;;;;;4868172;29;20166;-88
2022/10/29 15:16:05;;;;;;;;;;;19.40;99.90;;;;;;4853234;29;19923;-87
2022/10/29 15:42:31;;;;;;;;;;;18.90;99.90;;;;;;4918649;29;19926;-90
2022/10/29 15:54:04;;;;;;;;;;;18.00;99.90;;;;;;5453201;23;20391;-91
2022/10/29 15:59:47;;;;;;;;;;;17.80;99.90;;;;;;4936087;29;19917;-90
2022/10/29 16:06:35;;;;;;;;;;;17.40;99.90;;;;;;5681143;23;19930;-89
2022/10/29 16:09:15;;;;;;;;;;;17.40;99.90;;;;;;4921418;29;19951;-90
2022/10/29 16:11:40;;;;;;;;;;;17.00;99.90;;;;;;4936953;29;19919;-89
2022/10/29 16:14:08;;;;;;;;;;;17.30;99.90;;;;;;4937992;29;19970;-89
2022/10/29 16:16:36;;;;;;;;;;;16.90;99.90;;;;;;4935484;29;19926;-89
2022/10/29 16:19:01;;;;;;;;;;;17.80;99.90;;;;;;4936549;29;19978;-90
2022/10/29 16:21:27;;;;;;;;;;;17.60;99.90;;;;;;4918383;29;20319;-90
2022/10/29 16:23:52;;;;;;;;;;;18.30;99.90;;;;;;4919333;29;19995;-88
2022/10/29 16:26:23;;;;;;;;;;;17.10;99.90;;;;;;4909209;29;20279;-89
2022/10/29 16:28:57;;;;;;;;;;;16.70;99.90;;;;;;4908988;29;19927;-89
2022/10/29 16:31:35;;;;;;;;;;;17.00;99.90;;;;;;4924566;29;19926;-89
2022/10/29 16:34:06;;;;;;;;;;;17.00;99.90;;;;;;4925704;29;19919;-89
2022/10/29 16:36:42;;;;;;;;;;;;;;;;;;;;;
2022/10/29 16:39:29;;;;;;;;;;;16.90;99.90;;;;;;4871381;29;19951;-89
2022/10/29 16:41:55;;;;;;;;;;;16.90;99.90;;;;;;4873129;29;19931;-89
2022/10/29 16:44:30;;;;;;;;;;;18.00;99.90;;;;;;4906614;29;19923;-89
2022/10/29 16:47:14;;;;;;;;;;;16.90;99.90;;;;;;4926141;29;19923;-88
2022/10/29 16:49:52;;;;;;;;;;;16.90;99.90;;;;;;4929072;23;19923;-89
2022/10/29 16:52:36;;;;;;;;;;;16.90;99.90;;;;;;4915372;29;19929;-89
2022/10/29 16:55:25;;;;;;;;;;;16.90;99.90;;;;;;4916172;29;19930;-89
2022/10/29 16:57:50;;;;;;;;;;;16.80;99.90;;;;;;4896836;29;19927;-89
2022/10/29 17:00:25;;;;;;;;;;;18.00;99.90;;;;;;4913231;29;19970;-88
2022/10/29 17:03:01;;;;;;;;;;;16.80;99.90;;;;;;4908513;29;20006;-89
2022/10/29 17:05:29;;;;;;;;;;;16.70;99.90;;;;;;4873832;29;19931;-88
2022/10/29 17:08:07;;;;;;;;;;;16.50;99.90;;;;;;4888757;29;19966;-88
2022/10/29 17:10:33;;;;;;;;;;;17.20;99.90;;;;;;4893665;29;19930;-88
2022/10/29 17:12:59;;;;;;;;;;;16.60;99.90;;;;;;4888632;29;19923;-89
2022/10/29 17:15:25;;;;;;;;;;;16.50;99.90;;;;;;4913639;29;20283;-89
2022/10/29 17:17:51;;;;;;;;;;;16.50;99.90;;;;;;4898502;29;19933;-88
2022/10/29 17:20:19;;;;;;;;;;;16.40;99.90;;;;;;4904591;23;19970;-89
2022/10/29 17:23:30;;;;;;;;;;;16.30;99.90;;;;;;4898788;29;19966;-90
2022/10/29 17:25:56;;;;;;;;;;;16.80;99.90;;;;;;4898837;29;19940;-89
2022/10/29 17:28:24;;;;;;;;;;;15.90;99.90;;;;;;4916519;29;20013;-88
2022/10/29 17:30:50;;;;;;;;;;;16.30;99.90;;;;;;4899621;29;20014;-89
2022/10/29 17:33:27;;;;;;;;;;;16.20;99.90;;;;;;4915446;29;20344;-89
2022/10/29 17:36:04;;;;;;;;;;;16.00;99.90;;;;;;4899093;29;19923;-88
2022/10/29 17:38:35;;;;;;;;;;;16.10;99.90;;;;;;4916310;29;19923;-89
2022/10/29 17:41:26;;;;;;;;;;;16.10;99.90;;;;;;4902496;29;19985;-88
2022/10/29 17:43:54;;;;;;;;;;;16.50;99.90;;;;;;4905954;23;19923;-89
2022/10/29 17:49:26;;;;;;;;;;;16.10;99.90;;;;;;4916929;29;19934;-88
2022/10/29 17:52:26;;;;;;;;;;;16.10;99.90;;;;;;4916450;29;19930;-88
2022/10/29 17:54:52;;;;;;;;;;;16.10;99.90;;;;;;4857677;29;19927;-88
2022/10/29 17:57:23;;;;;;;;;;;17.10;99.90;;;;;;4845526;29;20274;-89
2022/10/29 18:00:03;;;;;;;;;;;16.10;99.90;;;;;;4845338;29;19974;-89
2022/10/29 18:02:46;;;;;;;;;;;15.60;99.90;;;;;;4861295;29;19924;-88
2022/10/29 18:05:30;;;;;;;;;;;16.30;99.90;;;;;;4845566;29;19931;-88
2022/10/29 18:08:11;;;;;;;;;;;15.60;99.90;;;;;;4860522;29;20011;-88
2022/10/29 18:10:51;;;;;;;;;;;16.10;99.90;;;;;;4861038;29;20033;-88
2022/10/29 18:13:16;;;;;;;;;;;15.90;99.90;;;;;;4860888;29;19979;-88
2022/10/29 18:15:51;;;;;;;;;;;16.50;99.90;;;;;;4860248;29;19955;-87
2022/10/29 18:18:22;;;;;;;;;;;15.80;99.90;;;;;;4845527;29;19924;-87
2022/10/29 18:20:47;;;;;;;;;;;15.50;99.90;;;;;;4860457;29;19924;-87
2022/10/29 18:23:16;;;;;;;;;;;17.10;99.90;;;;;;4860660;29;19935;-87
2022/10/29 18:35:52;;;;;;;;;;;15.80;99.90;;;;;;4919156;29;19919;-87
2022/10/29 18:42:14;;;;;;;;;;;15.70;99.90;;;;;;4918719;29;19966;-87
2022/10/29 18:44:58;;;;;;;;;;;15.60;99.90;;;;;;4901449;29;19929;-87
2022/10/29 18:47:30;;;;;;;;;;;15.60;99.90;;;;;;4916401;29;20451;-89
2022/10/29 18:50:02;;;;;;;;;;;16.30;99.90;;;;;;4914468;29;19931;-87
2022/10/29 18:52:40;;;;;;;;;;;15.40;99.90;;;;;;4893030;29;19935;-87
2022/10/29 18:55:05;;;;;;;;;;;15.40;99.90;;;;;;4915820;29;19962;-87
2022/10/29 19:03:05;;;;;;;;;;;15.30;99.90;;;;;;4927528;29;19930;-87
2022/10/29 19:05:40;;;;;;;;;;;15.20;99.90;;;;;;4901495;29;20001;-87
2022/10/29 19:08:24;;;;;;;;;;;15.20;99.90;;;;;;4915802;29;20386;-87
2022/10/29 19:10:50;;;;;;;;;;;15.60;99.90;;;;;;5151793;23;19974;-87
2022/10/29 19:13:35;;;;;;;;;;;15.20;99.90;;;;;;4915841;29;19962;-87
2022/10/29 19:16:01;;;;;;;;;;;15.20;99.90;;;;;;4889008;29;19945;-88
2022/10/29 19:18:28;;;;;;;;;;;15.20;99.90;;;;;;4889206;29;19927;-87
2022/10/29 19:21:05;;;;;;;;;;;15.20;99.90;;;;;;4888342;29;19924;-88
2022/10/29 19:23:30;;;;;;;;;;;16.10;99.90;;;;;;4879668;29;20396;-87
2022/10/29 19:29:23;;;;;;;;;;;15.40;99.90;;;;;;4872153;29;19972;-87
2022/10/29 19:32:01;;;;;;;;;;;15.30;99.90;;;;;;4878373;29;20388;-86
2022/10/29 19:37:16;;;;;;;;;;;15.30;99.90;;;;;;4937953;23;19926;-90
2022/10/29 19:39:54;;;;;;;;;;;15.30;99.90;;;;;;4910276;29;19927;-91
2022/10/29 19:42:38;;;;;;;;;;;15.30;99.90;;;;;;4909836;29;20315;-90
2022/10/29 19:45:09;;;;;;;;;;;14.70;99.90;;;;;;4909351;29;19923;-89
2022/10/29 19:47:35;;;;;;;;;;;15.40;99.90;;;;;;4910708;29;19926;-91
2022/10/29 19:50:04;;;;;;;;;;;15.90;99.90;;;;;;4921779;29;20418;-92
2022/10/29 19:52:35;;;;;;;;;;;15.40;99.90;;;;;;4907275;29;20026;-92
2022/10/29 19:55:13;;;;;;;;;;;15.10;99.90;;;;;;4921568;29;19974;-92
2022/10/29 19:57:57;;;;;;;;;;;15.40;99.90;;;;;;4968165;23;20373;-92
2022/10/29 20:03:38;;;;;;;;;;;15.30;99.90;;;;;;4940607;23;19926;-92
2022/10/29 20:06:05;;;;;;;;;;;14.90;99.90;;;;;;4921237;29;19930;-93
2022/10/29 20:08:40;;;;;;;;;;;15.40;99.90;;;;;;4907162;29;19978;-92
2022/10/29 20:11:26;;;;;;;;;;;15.40;99.90;;;;;;4926034;29;19919;-92
2022/10/29 20:14:14;;;;;;;;;;;15.40;99.90;;;;;;4912721;29;19923;-92
2022/10/29 20:16:39;;;;;;;;;;;15.40;99.90;;;;;;4913288;29;20383;-92
2022/10/29 20:19:13;;;;;;;;;;;15.40;99.90;;;;;;4911996;29;19931;-92
2022/10/29 20:21:49;;;;;;;;;;;15.30;99.90;;;;;;4913984;29;19927;-93
2022/10/29 20:24:14;;;;;;;;;;;15.30;99.90;;;;;;4922800;29;19922;-93
2022/10/29 20:30:02;;;;;;;;;;;15.40;99.90;;;;;;5215905;23;19939;-92
2022/10/29 20:32:59;;;;;;;;;;;15.40;99.90;;;;;;4907983;29;19927;-92
2022/10/29 20:35:34;;;;;;;;;;;15.00;99.90;;;;;;4908372;29;20442;-92
2022/10/29 20:40:32;;;;;;;;;;;15.40;99.90;;;;;;4938787;23;19966;-93
2022/10/29 20:42:58;;;;;;;;;;;15.20;99.90;;;;;;4911686;29;19929;-93
2022/10/29 20:45:28;;;;;;;;;;;16.60;99.90;;;;;;4932436;29;19931;-92
2022/10/29 20:51:21;;;;;;;;;;;15.20;99.90;;;;;;4929222;29;19958;-92
2022/10/29 20:53:47;;;;;;;;;;;15.30;99.90;;;;;;4922901;29;19923;-92
2022/10/29 21:12:20;;;;;;;;;;;14.60;99.90;;;;;;4896587;29;19930;-89
2022/10/29 21:21:52;;;;;;;;;;;14.00;99.90;;;;;;4892214;29;19939;-89
2022/10/29 21:24:27;;;;;;;;;;;14.20;99.90;;;;;;4898035;29;19923;-89